sensor_id;sensor_type;location;lat;lon;timestamp;pressure;altitude;pressure_sealevel;temperature;humidity
39739;BME280;25422;48.286;8.484;2023-03-26T00:01:17;93615.59;;;3.17;100.00
39739;BME280;25422;48.286;8.484;2023-03-26T00:03:46;93610.97;;;3.11;100.00
39739;BME280;25422;48.286;8.484;2023-03-26T00:06:20;93606.22;;;3.07;100.00
39739;BME280;25422;48.286;8.484;2023-03-26T00:08:47;93590.72;;;3.07;100.00
39739;BME280;25422;48.286;8.484;2023-03-26T00:11:14;93594.91;;;2.98;100.00
39739;BME280;25422;48.286;8.484;2023-03-26T00:13:40;93600.09;;;2.88;100.00
39739;BME280;25422;48.286;8.484;2023-03-26T00:16:09;93605.38;;;2.77;100.00
39739;BME280;25422;48.286;8.484;2023-03-26T00:18:35;93612.34;;;2.76;100.00
39739;BME280;25422;48.286;8.484;2023-03-26T00:21:03;93600.94;;;2.69;100.00
39739;BME280;25422;48.286;8.484;2023-03-26T00:23:30;93607.19;;;2.66;100.00
39739;BME280;25422;48.286;8.484;2023-03-26T00:25:57;93596.72;;;2.58;100.00
39739;BME280;25422;48.286;8.484;2023-03-26T00:28:23;93606.34;;;2.56;100.00
39739;BME280;25422;48.286;8.484;2023-03-26T00:30:55;93607.72;;;2.70;100.00
39739;BME280;25422;48.286;8.484;2023-03-26T00:33:21;93607.03;;;2.68;100.00
39739;BME280;25422;48.286;8.484;2023-03-26T00:35:51;93607.72;;;2.60;100.00
39739;BME280;25422;48.286;8.484;2023-03-26T00:38:16;93611.25;;;2.59;100.00
39739;BME280;25422;48.286;8.484;2023-03-26T00:40:42;93607.97;;;2.57;100.00
39739;BME280;25422;48.286;8.484;2023-03-26T00:43:13;93599.56;;;2.55;100.00
39739;BME280;25422;48.286;8.484;2023-03-26T00:45:49;93595.50;;;2.52;100.00
39739;BME280;25422;48.286;8.484;2023-03-26T00:48:16;93595.50;;;2.52;100.00
39739;BME280;25422;48.286;8.484;2023-03-26T00:50:43;93590.03;;;2.56;100.00
39739;BME280;25422;48.286;8.484;2023-03-26T00:53:10;93579.44;;;2.59;100.00
39739;BME280;25422;48.286;8.484;2023-03-26T00:55:43;93580.53;;;2.56;100.00
39739;BME280;25422;48.286;8.484;2023-03-26T00:58:10;93580.53;;;2.56;100.00
39739;BME280;25422;48.286;8.484;2023-03-26T01:00:41;93579.84;;;2.54;100.00
39739;BME280;25422;48.286;8.484;2023-03-26T01:03:11;93582.72;;;2.51;100.00
39739;BME280;25422;48.286;8.484;2023-03-26T01:05:49;93579.84;;;2.44;100.00
39739;BME280;25422;48.286;8.484;2023-03-26T01:10:52;93569.38;;;2.56;100.00
39739;BME280;25422;48.286;8.484;2023-03-26T01:13:22;93566.25;;;2.52;100.00
39739;BME280;25422;48.286;8.484;2023-03-26T01:15:49;93562.72;;;2.53;100.00
39739;BME280;25422;48.286;8.484;2023-03-26T01:18:22;93568.59;;;2.55;100.00
39739;BME280;25422;48.286;8.484;2023-03-26T01:20:53;93566.66;;;2.47;100.00
39739;BME280;25422;48.286;8.484;2023-03-26T01:23:26;93558.78;;;2.49;100.00
39739;BME280;25422;48.286;8.484;2023-03-26T01:26:03;93553.91;;;2.46;100.00
39739;BME280;25422;48.286;8.484;2023-03-26T01:28:33;93554.69;;;2.46;100.00
39739;BME280;25422;48.286;8.484;2023-03-26T01:34:36;93541.38;;;2.61;100.00
39739;BME280;25422;48.286;8.484;2023-03-26T01:37:28;93532.16;;;2.58;100.00
39739;BME280;25422;48.286;8.484;2023-03-26T01:40:01;93529.28;;;2.51;100.00
39739;BME280;25422;48.286;8.484;2023-03-26T01:42:47;93523.03;;;2.54;100.00
39739;BME280;25422;48.286;8.484;2023-03-26T01:45:20;93524.69;;;2.55;100.00
39739;BME280;25422;48.286;8.484;2023-03-26T01:47:49;93517.88;;;2.54;100.00
39739;BME280;25422;48.286;8.484;2023-03-26T01:50:15;93504.69;;;2.57;100.00
39739;BME280;25422;48.286;8.484;2023-03-26T01:52:41;93497.38;;;2.52;100.00
39739;BME280;25422;48.286;8.484;2023-03-26T01:55:07;93497.75;;;2.48;100.00
39739;BME280;25422;48.286;8.484;2023-03-26T01:57:46;93499.13;;;2.52;100.00
39739;BME280;25422;48.286;8.484;2023-03-26T02:00:17;93489.34;;;2.46;100.00
39739;BME280;25422;48.286;8.484;2023-03-26T02:03:12;93481.06;;;2.42;100.00
39739;BME280;25422;48.286;8.484;2023-03-26T02:08:23;93457.69;;;2.44;100.00
39739;BME280;25422;48.286;8.484;2023-03-26T02:10:57;93449.28;;;2.42;100.00
39739;BME280;25422;48.286;8.484;2023-03-26T02:13:24;93430.78;;;2.46;100.00
39739;BME280;25422;48.286;8.484;2023-03-26T02:15:55;93416.63;;;2.50;100.00
39739;BME280;25422;48.286;8.484;2023-03-26T02:18:21;93421.78;;;2.50;100.00
39739;BME280;25422;48.286;8.484;2023-03-26T02:20:50;93410.66;;;2.50;100.00
39739;BME280;25422;48.286;8.484;2023-03-26T02:23:19;93410.66;;;2.50;100.00
39739;BME280;25422;48.286;8.484;2023-03-26T02:25:45;93412.28;;;2.51;100.00
39739;BME280;25422;48.286;8.484;2023-03-26T02:28:11;93408.09;;;2.50;100.00
39739;BME280;25422;48.286;8.484;2023-03-26T02:30:37;93405.50;;;2.50;100.00
39739;BME280;25422;48.286;8.484;2023-03-26T02:33:02;93396.13;;;2.49;100.00
39739;BME280;25422;48.286;8.484;2023-03-26T02:35:36;93395.97;;;2.50;100.00
39739;BME280;25422;48.286;8.484;2023-03-26T02:38:02;93389.16;;;2.59;100.00
39739;BME280;25422;48.286;8.484;2023-03-26T02:40:28;93392.56;;;2.60;100.00
39739;BME280;25422;48.286;8.484;2023-03-26T02:42:54;93386.84;;;2.56;100.00
39739;BME280;25422;48.286;8.484;2023-03-26T02:45:21;93387.41;;;2.50;100.00
39739;BME280;25422;48.286;8.484;2023-03-26T02:48:25;93370.44;;;2.47;100.00
39739;BME280;25422;48.286;8.484;2023-03-26T02:51:03;93380.50;;;2.41;100.00
39739;BME280;25422;48.286;8.484;2023-03-26T02:53:46;93374.81;;;2.37;100.00
39739;BME280;25422;48.286;8.484;2023-03-26T02:56:31;93375.88;;;2.34;100.00
39739;BME280;25422;48.286;8.484;2023-03-26T02:59:15;93361.78;;;2.29;100.00
39739;BME280;25422;48.286;8.484;2023-03-26T03:01:43;93372.09;;;2.29;100.00
39739;BME280;25422;48.286;8.484;2023-03-26T03:04:11;93367.06;;;2.37;100.00
39739;BME280;25422;48.286;8.484;2023-03-26T03:06:37;93364.34;;;2.48;100.00
39739;BME280;25422;48.286;8.484;2023-03-26T03:09:06;93359.28;;;2.47;100.00
39739;BME280;25422;48.286;8.484;2023-03-26T03:11:36;93354.69;;;2.41;100.00
39739;BME280;25422;48.286;8.484;2023-03-26T03:14:02;93346.81;;;2.42;100.00
39739;BME280;25422;48.286;8.484;2023-03-26T03:16:30;93333.59;;;2.45;100.00
39739;BME280;25422;48.286;8.484;2023-03-26T03:18:58;93341.34;;;2.55;100.00
39739;BME280;25422;48.286;8.484;2023-03-26T03:21:33;93339.13;;;2.60;100.00
39739;BME280;25422;48.286;8.484;2023-03-26T03:23:58;93347.81;;;2.69;100.00
39739;BME280;25422;48.286;8.484;2023-03-26T03:26:25;93333.13;;;2.69;100.00
39739;BME280;25422;48.286;8.484;2023-03-26T03:28:53;93333.13;;;2.69;100.00
39739;BME280;25422;48.286;8.484;2023-03-26T03:31:20;93353.47;;;2.73;100.00
39739;BME280;25422;48.286;8.484;2023-03-26T03:33:46;93337.97;;;2.73;100.00
39739;BME280;25422;48.286;8.484;2023-03-26T03:36:14;93319.78;;;2.74;100.00
39739;BME280;25422;48.286;8.484;2023-03-26T03:38:43;93298.69;;;2.79;100.00
39739;BME280;25422;48.286;8.484;2023-03-26T03:41:11;93299.22;;;2.82;100.00
39739;BME280;25422;48.286;8.484;2023-03-26T03:43:40;93292.56;;;2.80;100.00
39739;BME280;25422;48.286;8.484;2023-03-26T03:46:11;93296.91;;;2.79;100.00
39739;BME280;25422;48.286;8.484;2023-03-26T03:48:45;93293.75;;;2.85;100.00
39739;BME280;25422;48.286;8.484;2023-03-26T03:51:17;93289.13;;;2.89;100.00
39739;BME280;25422;48.286;8.484;2023-03-26T03:53:52;93283.66;;;2.92;100.00
39739;BME280;25422;48.286;8.484;2023-03-26T03:56:31;93265.41;;;2.94;100.00
39739;BME280;25422;48.286;8.484;2023-03-26T03:59:23;93270.22;;;2.89;100.00
39739;BME280;25422;48.286;8.484;2023-03-26T04:01:49;93262.59;;;2.87;100.00
39739;BME280;25422;48.286;8.484;2023-03-26T04:04:44;93274.88;;;2.85;100.00
39739;BME280;25422;48.286;8.484;2023-03-26T04:07:12;93283.56;;;2.84;100.00
39739;BME280;25422;48.286;8.484;2023-03-26T04:10:01;93271.50;;;2.75;100.00
39739;BME280;25422;48.286;8.484;2023-03-26T04:12:49;93263.75;;;2.75;100.00
39739;BME280;25422;48.286;8.484;2023-03-26T04:15:18;93259.25;;;2.77;100.00
39739;BME280;25422;48.286;8.484;2023-03-26T04:17:45;93261.47;;;2.72;100.00
39739;BME280;25422;48.286;8.484;2023-03-26T04:20:12;93251.00;;;2.73;100.00
39739;BME280;25422;48.286;8.484;2023-03-26T04:22:43;93250.41;;;2.79;100.00
39739;BME280;25422;48.286;8.484;2023-03-26T04:25:11;93243.03;;;2.84;100.00
39739;BME280;25422;48.286;8.484;2023-03-26T04:27:38;93247.69;;;2.81;100.00
39739;BME280;25422;48.286;8.484;2023-03-26T04:30:35;93246.72;;;2.82;100.00
39739;BME280;25422;48.286;8.484;2023-03-26T04:33:17;93238.69;;;2.85;100.00
39739;BME280;25422;48.286;8.484;2023-03-26T04:35:43;93235.44;;;2.83;100.00
39739;BME280;25422;48.286;8.484;2023-03-26T04:38:12;93234.19;;;2.87;100.00
39739;BME280;25422;48.286;8.484;2023-03-26T04:40:44;93229.69;;;2.89;100.00
39739;BME280;25422;48.286;8.484;2023-03-26T04:43:31;93218.84;;;2.85;100.00
39739;BME280;25422;48.286;8.484;2023-03-26T04:46:16;93214.78;;;2.83;100.00
39739;BME280;25422;48.286;8.484;2023-03-26T04:48:56;93229.81;;;2.87;100.00
39739;BME280;25422;48.286;8.484;2023-03-26T04:51:25;93220.69;;;2.93;100.00
39739;BME280;25422;48.286;8.484;2023-03-26T04:53:54;93219.06;;;2.92;100.00
39739;BME280;25422;48.286;8.484;2023-03-26T04:57:16;93213.09;;;2.92;100.00
39739;BME280;25422;48.286;8.484;2023-03-26T04:59:42;93208.72;;;2.92;100.00
39739;BME280;25422;48.286;8.484;2023-03-26T05:02:11;93192.44;;;2.92;100.00
39739;BME280;25422;48.286;8.484;2023-03-26T05:04:48;93182.59;;;2.95;100.00
39739;BME280;25422;48.286;8.484;2023-03-26T05:07:20;93163.41;;;2.98;100.00
39739;BME280;25422;48.286;8.484;2023-03-26T05:09:51;93164.72;;;3.02;100.00
39739;BME280;25422;48.286;8.484;2023-03-26T05:12:21;93158.28;;;3.06;100.00
39739;BME280;25422;48.286;8.484;2023-03-26T05:15:14;93158.16;;;3.08;100.00
39739;BME280;25422;48.286;8.484;2023-03-26T05:18:11;93150.91;;;3.11;100.00
39739;BME280;25422;48.286;8.484;2023-03-26T05:20:43;93141.91;;;3.15;100.00
39739;BME280;25422;48.286;8.484;2023-03-26T05:23:10;93127.41;;;3.23;100.00
39739;BME280;25422;48.286;8.484;2023-03-26T05:25:40;93129.75;;;3.34;100.00
39739;BME280;25422;48.286;8.484;2023-03-26T05:28:13;93133.50;;;3.40;100.00
39739;BME280;25422;48.286;8.484;2023-03-26T05:31:05;93126.56;;;3.40;100.00
39739;BME280;25422;48.286;8.484;2023-03-26T05:33:34;93118.00;;;3.40;100.00
39739;BME280;25422;48.286;8.484;2023-03-26T05:36:07;93124.13;;;3.38;100.00
39739;BME280;25422;48.286;8.484;2023-03-26T05:38:34;93117.84;;;3.41;100.00
39739;BME280;25422;48.286;8.484;2023-03-26T05:41:04;93121.91;;;3.44;100.00
39739;BME280;25422;48.286;8.484;2023-03-26T05:43:32;93113.47;;;3.42;100.00
39739;BME280;25422;48.286;8.484;2023-03-26T05:46:08;93118.50;;;3.43;100.00
39739;BME280;25422;48.286;8.484;2023-03-26T05:48:33;93113.19;;;3.45;100.00
39739;BME280;25422;48.286;8.484;2023-03-26T05:50:59;93112.19;;;3.46;100.00
39739;BME280;25422;48.286;8.484;2023-03-26T05:53:28;93108.81;;;3.45;100.00
39739;BME280;25422;48.286;8.484;2023-03-26T05:56:29;93108.97;;;3.44;100.00
39739;BME280;25422;48.286;8.484;2023-03-26T05:59:33;93105.13;;;3.48;100.00
39739;BME280;25422;48.286;8.484;2023-03-26T06:02:17;93092.81;;;3.50;100.00
39739;BME280;25422;48.286;8.484;2023-03-26T06:05:01;93090.56;;;3.47;100.00
39739;BME280;25422;48.286;8.484;2023-03-26T06:07:40;93085.22;;;3.48;100.00
39739;BME280;25422;48.286;8.484;2023-03-26T06:10:13;93076.66;;;3.48;100.00
39739;BME280;25422;48.286;8.484;2023-03-26T06:12:39;93056.94;;;3.47;100.00
39739;BME280;25422;48.286;8.484;2023-03-26T06:15:06;93055.66;;;3.51;100.00
39739;BME280;25422;48.286;8.484;2023-03-26T06:17:45;93055.66;;;3.51;100.00
39739;BME280;25422;48.286;8.484;2023-03-26T06:20:18;93053.09;;;3.51;100.00
39739;BME280;25422;48.286;8.484;2023-03-26T06:22:46;93046.63;;;3.55;100.00
39739;BME280;25422;48.286;8.484;2023-03-26T06:25:20;93043.44;;;3.61;100.00
39739;BME280;25422;48.286;8.484;2023-03-26T06:28:04;93037.94;;;3.64;100.00
39739;BME280;25422;48.286;8.484;2023-03-26T06:30:48;93031.97;;;3.64;100.00
39739;BME280;25422;48.286;8.484;2023-03-26T06:33:31;93035.22;;;3.66;100.00
39739;BME280;25422;48.286;8.484;2023-03-26T06:35:58;93020.81;;;3.63;100.00
39739;BME280;25422;48.286;8.484;2023-03-26T06:38:24;93019.22;;;3.62;100.00
39739;BME280;25422;48.286;8.484;2023-03-26T06:40:49;93014.84;;;3.63;100.00
39739;BME280;25422;48.286;8.484;2023-03-26T06:43:35;93010.47;;;3.63;100.00
39739;BME280;25422;48.286;8.484;2023-03-26T06:46:14;93005.00;;;3.66;100.00
39739;BME280;25422;48.286;8.484;2023-03-26T06:48:58;92994.31;;;3.69;100.00
39739;BME280;25422;48.286;8.484;2023-03-26T06:51:42;92991.91;;;3.68;100.00
39739;BME280;25422;48.286;8.484;2023-03-26T06:54:26;92981.41;;;3.69;100.00
39739;BME280;25422;48.286;8.484;2023-03-26T06:57:10;92979.16;;;3.75;100.00
39739;BME280;25422;48.286;8.484;2023-03-26T07:00:08;92969.44;;;3.77;100.00
39739;BME280;25422;48.286;8.484;2023-03-26T07:02:52;92971.22;;;3.76;100.00
39739;BME280;25422;48.286;8.484;2023-03-26T07:05:39;92955.22;;;3.81;100.00
39739;BME280;25422;48.286;8.484;2023-03-26T07:08:43;92950.88;;;3.90;100.00
39739;BME280;25422;48.286;8.484;2023-03-26T07:11:26;92951.19;;;3.95;100.00
39739;BME280;25422;48.286;8.484;2023-03-26T07:14:16;92950.72;;;3.99;100.00
39739;BME280;25422;48.286;8.484;2023-03-26T07:17:01;92952.03;;;4.03;100.00
39739;BME280;25422;48.286;8.484;2023-03-26T07:19:34;92946.84;;;4.03;100.00
39739;BME280;25422;48.286;8.484;2023-03-26T07:22:00;92953.00;;;4.02;100.00
39739;BME280;25422;48.286;8.484;2023-03-26T07:24:58;92931.00;;;4.07;100.00
39739;BME280;25422;48.286;8.484;2023-03-26T07:27:51;92936.84;;;4.09;100.00
39739;BME280;25422;48.286;8.484;2023-03-26T07:36:35;92929.53;;;4.04;100.00
39739;BME280;25422;48.286;8.484;2023-03-26T07:39:56;92931.97;;;4.05;100.00
39739;BME280;25422;48.286;8.484;2023-03-26T07:46:25;92915.16;;;4.10;100.00
39739;BME280;25422;48.286;8.484;2023-03-26T07:49:11;92915.00;;;4.11;100.00
39739;BME280;25422;48.286;8.484;2023-03-26T07:51:59;92912.25;;;4.13;100.00
39739;BME280;25422;48.286;8.484;2023-03-26T07:54:44;92909.66;;;4.13;100.00
39739;BME280;25422;48.286;8.484;2023-03-26T07:58:03;92889.59;;;4.15;100.00
39739;BME280;25422;48.286;8.484;2023-03-26T08:01:07;92886.19;;;4.22;100.00
39739;BME280;25422;48.286;8.484;2023-03-26T08:04:00;92887.81;;;4.24;100.00
39739;BME280;25422;48.286;8.484;2023-03-26T08:07:02;92876.16;;;4.28;100.00
39739;BME280;25422;48.286;8.484;2023-03-26T08:13:25;92909.16;;;4.34;100.00
39739;BME280;25422;48.286;8.484;2023-03-26T08:21:21;92915.44;;;4.64;100.00
39739;BME280;25422;48.286;8.484;2023-03-26T08:29:17;92906.16;;;4.86;100.00
39739;BME280;25422;48.286;8.484;2023-03-26T08:31:45;92908.72;;;4.95;100.00
39739;BME280;25422;48.286;8.484;2023-03-26T08:34:12;92907.75;;;4.96;100.00
39739;BME280;25422;48.286;8.484;2023-03-26T08:36:38;92907.22;;;5.09;100.00
39739;BME280;25422;48.286;8.484;2023-03-26T08:39:04;92901.22;;;5.16;100.00
39739;BME280;25422;48.286;8.484;2023-03-26T08:42:03;92907.44;;;5.38;100.00
39739;BME280;25422;48.286;8.484;2023-03-26T08:53:31;92900.16;;;5.65;100.00
39739;BME280;25422;48.286;8.484;2023-03-26T08:56:19;92890.50;;;5.82;100.00
39739;BME280;25422;48.286;8.484;2023-03-26T09:26:58;92873.69;;;11.33;100.00
39739;BME280;25422;48.286;8.484;2023-03-26T09:37:23;92888.66;;;10.39;100.00
39739;BME280;25422;48.286;8.484;2023-03-26T09:45:41;92897.72;;;10.36;100.00
39739;BME280;25422;48.286;8.484;2023-03-26T09:53:50;92896.53;;;10.52;100.00
39739;BME280;25422;48.286;8.484;2023-03-26T09:59:26;92890.06;;;11.22;100.00
39739;BME280;25422;48.286;8.484;2023-03-26T10:02:31;92881.44;;;10.48;100.00
39739;BME280;25422;48.286;8.484;2023-03-26T10:05:26;92883.91;;;9.81;100.00
39739;BME280;25422;48.286;8.484;2023-03-26T10:10:35;92914.44;;;8.68;100.00
39739;BME280;25422;48.286;8.484;2023-03-26T10:13:46;92932.13;;;6.82;100.00
39739;BME280;25422;48.286;8.484;2023-03-26T10:16:38;92926.78;;;5.90;100.00
39739;BME280;25422;48.286;8.484;2023-03-26T10:19:26;92910.34;;;5.44;100.00
39739;BME280;25422;48.286;8.484;2023-03-26T10:24:50;92924.19;;;5.28;100.00
39739;BME280;25422;48.286;8.484;2023-03-26T10:27:54;92933.81;;;5.11;100.00
39739;BME280;25422;48.286;8.484;2023-03-26T10:30:49;92954.94;;;4.66;100.00
39739;BME280;25422;48.286;8.484;2023-03-26T10:33:46;92955.13;;;4.40;100.00
39739;BME280;25422;48.286;8.484;2023-03-26T10:36:36;92975.19;;;4.30;100.00
39739;BME280;25422;48.286;8.484;2023-03-26T10:39:29;92959.81;;;4.36;100.00
39739;BME280;25422;48.286;8.484;2023-03-26T10:42:08;92957.53;;;4.66;100.00
39739;BME280;25422;48.286;8.484;2023-03-26T10:45:02;92951.28;;;5.09;100.00
39739;BME280;25422;48.286;8.484;2023-03-26T10:48:00;92968.38;;;4.86;100.00
39739;BME280;25422;48.286;8.484;2023-03-26T10:50:51;92957.22;;;4.78;100.00
39739;BME280;25422;48.286;8.484;2023-03-26T10:58:51;92954.53;;;5.58;100.00
39739;BME280;25422;48.286;8.484;2023-03-26T11:01:30;92946.88;;;5.97;100.00
39739;BME280;25422;48.286;8.484;2023-03-26T11:06:52;92944.06;;;7.06;100.00
39739;BME280;25422;48.286;8.484;2023-03-26T11:12:33;92933.84;;;7.34;100.00
39739;BME280;25422;48.286;8.484;2023-03-26T11:15:14;92917.03;;;7.67;100.00
39739;BME280;25422;48.286;8.484;2023-03-26T11:17:57;92915.94;;;7.76;100.00
39739;BME280;25422;48.286;8.484;2023-03-26T11:20:45;92917.69;;;8.77;100.00
39739;BME280;25422;48.286;8.484;2023-03-26T11:23:49;92921.34;;;9.46;100.00
39739;BME280;25422;48.286;8.484;2023-03-26T11:29:09;92900.69;;;9.51;100.00
39739;BME280;25422;48.286;8.484;2023-03-26T11:34:26;92913.22;;;10.38;100.00
39739;BME280;25422;48.286;8.484;2023-03-26T11:36:55;92899.38;;;9.75;100.00
39739;BME280;25422;48.286;8.484;2023-03-26T11:39:26;92904.34;;;10.39;100.00
39739;BME280;25422;48.286;8.484;2023-03-26T11:42:06;92919.28;;;10.72;100.00
39739;BME280;25422;48.286;8.484;2023-03-26T11:44:46;92917.81;;;11.29;100.00
39739;BME280;25422;48.286;8.484;2023-03-26T11:47:17;92914.75;;;11.39;100.00
39739;BME280;25422;48.286;8.484;2023-03-26T11:49:46;92918.25;;;10.66;100.00
39739;BME280;25422;48.286;8.484;2023-03-26T11:52:14;92918.63;;;10.36;100.00
39739;BME280;25422;48.286;8.484;2023-03-26T11:54:40;92922.09;;;9.82;100.00
39739;BME280;25422;48.286;8.484;2023-03-26T11:57:15;92914.25;;;9.82;100.00
39739;BME280;25422;48.286;8.484;2023-03-26T12:00:15;92919.63;;;11.29;100.00
39739;BME280;25422;48.286;8.484;2023-03-26T12:02:47;92927.91;;;10.66;100.00
39739;BME280;25422;48.286;8.484;2023-03-26T12:05:21;92914.25;;;9.82;100.00
39739;BME280;25422;48.286;8.484;2023-03-26T12:07:58;92909.25;;;9.87;100.00
39739;BME280;25422;48.286;8.484;2023-03-26T12:10:32;92898.91;;;9.58;100.00
39739;BME280;25422;48.286;8.484;2023-03-26T12:15:45;92904.00;;;8.68;100.00
39739;BME280;25422;48.286;8.484;2023-03-26T12:18:26;92906.25;;;8.28;100.00
39739;BME280;25422;48.286;8.484;2023-03-26T12:23:52;92912.22;;;7.85;100.00
39739;BME280;25422;48.286;8.484;2023-03-26T12:26:39;92902.00;;;8.27;100.00
39739;BME280;25422;48.286;8.484;2023-03-26T12:29:10;92906.22;;;9.00;100.00
39739;BME280;25422;48.286;8.484;2023-03-26T12:31:54;92903.47;;;10.11;100.00
39739;BME280;25422;48.286;8.484;2023-03-26T12:34:22;92894.31;;;10.69;100.00
39739;BME280;25422;48.286;8.484;2023-03-26T12:36:56;92887.03;;;11.05;100.00
39739;BME280;25422;48.286;8.484;2023-03-26T12:42:01;92880.63;;;10.80;100.00
39739;BME280;25422;48.286;8.484;2023-03-26T12:44:35;92875.63;;;9.64;100.00
39739;BME280;25422;48.286;8.484;2023-03-26T12:47:13;92870.03;;;9.25;100.00
39739;BME280;25422;48.286;8.484;2023-03-26T12:49:39;92871.72;;;10.01;100.00
39739;BME280;25422;48.286;8.484;2023-03-26T12:52:31;92852.91;;;10.59;100.00
39739;BME280;25422;48.286;8.484;2023-03-26T12:57:35;92852.69;;;9.59;100.00
39739;BME280;25422;48.286;8.484;2023-03-26T13:00:10;92857.28;;;9.43;100.00
39739;BME280;25422;48.286;8.484;2023-03-26T13:03:33;92851.34;;;9.21;100.00
39739;BME280;25422;48.286;8.484;2023-03-26T13:20:03;92827.28;;;12.56;68.30
39739;BME280;25422;48.286;8.484;2023-03-26T13:33:48;92845.41;;;8.64;90.36
39739;BME280;25422;48.286;8.484;2023-03-26T13:36:25;92846.03;;;9.01;90.79
39739;BME280;25422;48.286;8.484;2023-03-26T13:39:10;92843.31;;;9.16;92.64
39739;BME280;25422;48.286;8.484;2023-03-26T13:41:52;92843.41;;;9.36;89.46
39739;BME280;25422;48.286;8.484;2023-03-26T13:44:42;92838.56;;;10.15;87.71
39739;BME280;25422;48.286;8.484;2023-03-26T13:47:25;92825.28;;;10.10;84.16
39739;BME280;25422;48.286;8.484;2023-03-26T13:50:14;92823.44;;;9.84;90.63
39739;BME280;25422;48.286;8.484;2023-03-26T13:55:35;92821.44;;;8.47;96.73
39739;BME280;25422;48.286;8.484;2023-03-26T14:03:26;92818.16;;;8.38;98.32
39739;BME280;25422;48.286;8.484;2023-03-26T14:05:59;92814.00;;;8.22;100.00
39739;BME280;25422;48.286;8.484;2023-03-26T14:08:30;92801.94;;;7.93;100.00
39739;BME280;25422;48.286;8.484;2023-03-26T14:11:13;92794.53;;;8.18;100.00
39739;BME280;25422;48.286;8.484;2023-03-26T14:13:43;92807.38;;;7.98;100.00
39739;BME280;25422;48.286;8.484;2023-03-26T14:16:23;92801.06;;;7.86;100.00
39739;BME280;25422;48.286;8.484;2023-03-26T14:18:58;92788.38;;;7.98;100.00
39739;BME280;25422;48.286;8.484;2023-03-26T14:21:54;92788.94;;;8.21;100.00
39739;BME280;25422;48.286;8.484;2023-03-26T14:33:10;92799.25;;;7.65;100.00
39739;BME280;25422;48.286;8.484;2023-03-26T14:35:53;92818.41;;;7.35;100.00
39739;BME280;25422;48.286;8.484;2023-03-26T14:41:28;92857.38;;;6.69;100.00
39739;BME280;25422;48.286;8.484;2023-03-26T14:47:01;92871.97;;;5.62;100.00
39739;BME280;25422;48.286;8.484;2023-03-26T14:52:24;92879.75;;;4.83;100.00
39739;BME280;25422;48.286;8.484;2023-03-26T14:54:56;92893.28;;;4.53;100.00
39739;BME280;25422;48.286;8.484;2023-03-26T14:57:57;92889.09;;;3.78;100.00
39739;BME280;25422;48.286;8.484;2023-03-26T15:09:18;92858.53;;;3.06;100.00
39739;BME280;25422;48.286;8.484;2023-03-26T15:20:21;92857.81;;;3.38;100.00
39739;BME280;25422;48.286;8.484;2023-03-26T15:29:06;92882.44;;;3.67;100.00
39739;BME280;25422;48.286;8.484;2023-03-26T15:32:02;92886.50;;;3.70;100.00
39739;BME280;25422;48.286;8.484;2023-03-26T15:45:32;92886.38;;;4.21;100.00
39739;BME280;25422;48.286;8.484;2023-03-26T15:48:05;92882.63;;;4.24;100.00
39739;BME280;25422;48.286;8.484;2023-03-26T16:01:56;92880.84;;;4.08;100.00
39739;BME280;25422;48.286;8.484;2023-03-26T16:07:22;92881.81;;;4.07;100.00
39739;BME280;25422;48.286;8.484;2023-03-26T16:21:01;92881.66;;;4.08;100.00
39739;BME280;25422;48.286;8.484;2023-03-26T16:23:34;92885.41;;;4.14;100.00
39739;BME280;25422;48.286;8.484;2023-03-26T16:26:26;92880.53;;;4.11;100.00
39739;BME280;25422;48.286;8.484;2023-03-26T16:32:03;92890.56;;;4.14;100.00
39739;BME280;25422;48.286;8.484;2023-03-26T16:37:47;92897.69;;;4.12;100.00
39739;BME280;25422;48.286;8.484;2023-03-26T16:45:45;92900.91;;;3.89;100.00
39739;BME280;25422;48.286;8.484;2023-03-26T16:58:50;92902.84;;;3.87;100.00
39739;BME280;25422;48.286;8.484;2023-03-26T17:06:30;92893.63;;;4.01;100.00
39739;BME280;25422;48.286;8.484;2023-03-26T17:11:56;92887.31;;;3.87;100.00
39739;BME280;25422;48.286;8.484;2023-03-26T17:14:32;92888.63;;;3.83;100.00
39739;BME280;25422;48.286;8.484;2023-03-26T17:19:39;92903.63;;;3.79;100.00
39739;BME280;25422;48.286;8.484;2023-03-26T17:22:13;92903.78;;;3.69;100.00
39739;BME280;25422;48.286;8.484;2023-03-26T17:27:58;92914.13;;;3.61;100.00
39739;BME280;25422;48.286;8.484;2023-03-26T17:33:26;92931.72;;;3.49;100.00
39739;BME280;25422;48.286;8.484;2023-03-26T17:41:03;92955.91;;;3.40;100.00
39739;BME280;25422;48.286;8.484;2023-03-26T17:46:01;92964.16;;;3.35;100.00
39739;BME280;25422;48.286;8.484;2023-03-26T17:48:31;92964.13;;;3.27;100.00
39739;BME280;25422;48.286;8.484;2023-03-26T17:51:30;92969.88;;;3.21;100.00
39739;BME280;25422;48.286;8.484;2023-03-26T17:54:02;92967.44;;;3.11;100.00
39739;BME280;25422;48.286;8.484;2023-03-26T17:56:30;92964.84;;;3.11;100.00
39739;BME280;25422;48.286;8.484;2023-03-26T17:58:58;92966.88;;;2.99;100.00
39739;BME280;25422;48.286;8.484;2023-03-26T18:01:36;92969.56;;;2.90;100.00
39739;BME280;25422;48.286;8.484;2023-03-26T18:04:05;92966.38;;;2.69;100.00
39739;BME280;25422;48.286;8.484;2023-03-26T18:09:34;92968.50;;;2.48;100.00
39739;BME280;25422;48.286;8.484;2023-03-26T18:17:17;92967.25;;;2.34;100.00
39739;BME280;25422;48.286;8.484;2023-03-26T18:19:52;92963.28;;;2.40;100.00
39739;BME280;25422;48.286;8.484;2023-03-26T18:22:25;92957.66;;;2.44;100.00
39739;BME280;25422;48.286;8.484;2023-03-26T18:24:58;92957.47;;;2.38;100.00
39739;BME280;25422;48.286;8.484;2023-03-26T18:27:26;92958.56;;;2.35;100.00
39739;BME280;25422;48.286;8.484;2023-03-26T18:32:23;92962.75;;;2.36;100.00
39739;BME280;25422;48.286;8.484;2023-03-26T18:34:56;92963.94;;;2.42;100.00
39739;BME280;25422;48.286;8.484;2023-03-26T18:37:35;92962.63;;;2.38;100.00
39739;BME280;25422;48.286;8.484;2023-03-26T18:40:15;92963.72;;;2.35;100.00
39739;BME280;25422;48.286;8.484;2023-03-26T18:42:54;92963.13;;;2.41;100.00